sensor_id;sensor_type;location;lat;lon;timestamp;P1;durP1;ratioP1;P2;durP2;ratioP2
42518;SDS011;28147;47.520;18.920;2024-02-21T00:04:25;3.33;;;1.40;;
42518;SDS011;28147;47.520;18.920;2024-02-21T00:26:48;1.88;;;0.93;;
42518;SDS011;28147;47.520;18.920;2024-02-21T00:29:13;2.75;;;1.08;;
42518;SDS011;28147;47.520;18.920;2024-02-21T00:45:05;1.92;;;0.98;;
42518;SDS011;28147;47.520;18.920;2024-02-21T00:47:45;2.58;;;1.20;;
42518;SDS011;28147;47.520;18.920;2024-02-21T00:50:10;2.17;;;1.33;;
42518;SDS011;28147;47.520;18.920;2024-02-21T00:54:16;1.92;;;0.90;;
42518;SDS011;28147;47.520;18.920;2024-02-21T00:56:42;1.15;;;0.75;;
42518;SDS011;28147;47.520;18.920;2024-02-21T00:59:07;2.25;;;1.10;;
42518;SDS011;28147;47.520;18.920;2024-02-21T01:04:05;7.10;;;1.65;;
42518;SDS011;28147;47.520;18.920;2024-02-21T01:06:30;4.15;;;1.58;;
42518;SDS011;28147;47.520;18.920;2024-02-21T01:14:44;1.98;;;0.80;;
42518;SDS011;28147;47.520;18.920;2024-02-21T01:19:00;3.70;;;1.15;;
42518;SDS011;28147;47.520;18.920;2024-02-21T01:24:19;4.60;;;1.20;;
42518;SDS011;28147;47.520;18.920;2024-02-21T01:51:32;5.03;;;1.77;;
42518;SDS011;28147;47.520;18.920;2024-02-21T02:24:34;6.32;;;1.70;;
42518;SDS011;28147;47.520;18.920;2024-02-21T02:40:21;5.55;;;1.90;;
42518;SDS011;28147;47.520;18.920;2024-02-21T02:47:50;5.85;;;1.77;;
42518;SDS011;28147;47.520;18.920;2024-02-21T02:53:11;5.30;;;1.73;;
42518;SDS011;28147;47.520;18.920;2024-02-21T02:56:56;3.55;;;1.35;;
42518;SDS011;28147;47.520;18.920;2024-02-21T03:07:47;3.63;;;1.60;;
42518;SDS011;28147;47.520;18.920;2024-02-21T03:10:13;2.70;;;1.48;;
42518;SDS011;28147;47.520;18.920;2024-02-21T03:29:27;6.38;;;1.70;;
42518;SDS011;28147;47.520;18.920;2024-02-21T03:51:32;3.63;;;1.80;;
42518;SDS011;28147;47.520;18.920;2024-02-21T03:55:37;4.68;;;1.88;;
42518;SDS011;28147;47.520;18.920;2024-02-21T04:02:29;3.60;;;1.65;;
42518;SDS011;28147;47.520;18.920;2024-02-21T04:04:55;4.15;;;1.88;;
42518;SDS011;28147;47.520;18.920;2024-02-21T04:15:21;6.70;;;2.28;;
42518;SDS011;28147;47.520;18.920;2024-02-21T04:19:05;4.57;;;2.33;;
42518;SDS011;28147;47.520;18.920;2024-02-21T04:25:48;3.50;;;1.98;;
42518;SDS011;28147;47.520;18.920;2024-02-21T04:28:13;6.45;;;2.63;;
42518;SDS011;28147;47.520;18.920;2024-02-21T04:32:26;4.05;;;2.05;;
42518;SDS011;28147;47.520;18.920;2024-02-21T04:35:31;4.97;;;2.72;;
42518;SDS011;28147;47.520;18.920;2024-02-21T04:37:56;6.05;;;2.78;;
42518;SDS011;28147;47.520;18.920;2024-02-21T04:40:22;4.47;;;2.15;;
42518;SDS011;28147;47.520;18.920;2024-02-21T04:43:41;4.03;;;2.40;;
42518;SDS011;28147;47.520;18.920;2024-02-21T04:49:11;5.07;;;2.28;;
42518;SDS011;28147;47.520;18.920;2024-02-21T04:51:36;3.22;;;2.00;;
42518;SDS011;28147;47.520;18.920;2024-02-21T04:57:23;3.65;;;2.00;;
42518;SDS011;28147;47.520;18.920;2024-02-21T05:02:10;6.03;;;2.42;;
42518;SDS011;28147;47.520;18.920;2024-02-21T05:07:09;7.00;;;2.30;;
42518;SDS011;28147;47.520;18.920;2024-02-21T05:09:35;5.72;;;2.00;;
42518;SDS011;28147;47.520;18.920;2024-02-21T05:15:26;5.65;;;2.22;;
42518;SDS011;28147;47.520;18.920;2024-02-21T05:25:15;2.83;;;1.45;;
42518;SDS011;28147;47.520;18.920;2024-02-21T05:27:40;4.30;;;2.05;;
42518;SDS011;28147;47.520;18.920;2024-02-21T05:30:06;10.32;;;2.22;;
42518;SDS011;28147;47.520;18.920;2024-02-21T05:32:32;4.00;;;1.50;;
42518;SDS011;28147;47.520;18.920;2024-02-21T05:41:25;2.78;;;1.40;;
42518;SDS011;28147;47.520;18.920;2024-02-21T05:47:56;6.18;;;1.70;;
42518;SDS011;28147;47.520;18.920;2024-02-21T05:50:22;4.03;;;1.48;;
42518;SDS011;28147;47.520;18.920;2024-02-21T05:55:34;4.70;;;1.85;;
42518;SDS011;28147;47.520;18.920;2024-02-21T05:59:45;5.85;;;1.67;;
42518;SDS011;28147;47.520;18.920;2024-02-21T06:04:18;6.65;;;1.60;;
42518;SDS011;28147;47.520;18.920;2024-02-21T06:06:44;5.00;;;1.85;;
42518;SDS011;28147;47.520;18.920;2024-02-21T06:09:09;3.65;;;1.77;;
42518;SDS011;28147;47.520;18.920;2024-02-21T06:11:34;5.63;;;1.60;;
42518;SDS011;28147;47.520;18.920;2024-02-21T06:14:02;4.63;;;1.75;;
42518;SDS011;28147;47.520;18.920;2024-02-21T06:16:27;6.68;;;1.77;;
42518;SDS011;28147;47.520;18.920;2024-02-21T06:18:53;3.83;;;1.40;;
42518;SDS011;28147;47.520;18.920;2024-02-21T06:21:18;7.05;;;2.17;;
42518;SDS011;28147;47.520;18.920;2024-02-21T06:23:43;5.18;;;1.50;;
42518;SDS011;28147;47.520;18.920;2024-02-21T06:26:09;4.93;;;1.80;;
42518;SDS011;28147;47.520;18.920;2024-02-21T06:28:34;4.85;;;1.80;;
42518;SDS011;28147;47.520;18.920;2024-02-21T06:31:00;4.05;;;1.70;;
42518;SDS011;28147;47.520;18.920;2024-02-21T06:33:26;4.32;;;1.55;;
42518;SDS011;28147;47.520;18.920;2024-02-21T06:35:51;3.95;;;1.77;;
42518;SDS011;28147;47.520;18.920;2024-02-21T06:38:19;5.00;;;1.45;;
42518;SDS011;28147;47.520;18.920;2024-02-21T06:40:45;6.97;;;1.95;;
42518;SDS011;28147;47.520;18.920;2024-02-21T06:43:14;3.92;;;1.55;;
42518;SDS011;28147;47.520;18.920;2024-02-21T06:45:48;4.20;;;2.17;;
42518;SDS011;28147;47.520;18.920;2024-02-21T06:49:05;4.47;;;1.85;;
42518;SDS011;28147;47.520;18.920;2024-02-21T06:51:30;4.75;;;2.25;;
42518;SDS011;28147;47.520;18.920;2024-02-21T06:53:59;5.30;;;2.50;;
42518;SDS011;28147;47.520;18.920;2024-02-21T06:56:25;3.55;;;1.67;;
42518;SDS011;28147;47.520;18.920;2024-02-21T06:58:53;3.90;;;1.50;;
42518;SDS011;28147;47.520;18.920;2024-02-21T07:01:19;4.50;;;1.80;;
42518;SDS011;28147;47.520;18.920;2024-02-21T07:03:45;5.68;;;1.77;;
42518;SDS011;28147;47.520;18.920;2024-02-21T07:06:10;4.40;;;1.50;;
42518;SDS011;28147;47.520;18.920;2024-02-21T07:08:36;3.47;;;1.50;;
42518;SDS011;28147;47.520;18.920;2024-02-21T07:11:02;5.45;;;1.48;;
42518;SDS011;28147;47.520;18.920;2024-02-21T07:13:28;3.70;;;1.38;;
42518;SDS011;28147;47.520;18.920;2024-02-21T07:15:53;6.50;;;1.67;;
42518;SDS011;28147;47.520;18.920;2024-02-21T07:18:19;3.75;;;1.50;;
42518;SDS011;28147;47.520;18.920;2024-02-21T07:20:45;4.70;;;1.55;;
42518;SDS011;28147;47.520;18.920;2024-02-21T07:23:11;7.63;;;1.88;;
42518;SDS011;28147;47.520;18.920;2024-02-21T07:25:36;4.03;;;1.70;;
42518;SDS011;28147;47.520;18.920;2024-02-21T07:28:01;6.00;;;1.67;;
42518;SDS011;28147;47.520;18.920;2024-02-21T07:30:27;6.00;;;1.67;;
42518;SDS011;28147;47.520;18.920;2024-02-21T07:32:53;2.65;;;1.20;;
42518;SDS011;28147;47.520;18.920;2024-02-21T07:35:18;8.63;;;1.35;;
42518;SDS011;28147;47.520;18.920;2024-02-21T07:37:43;6.22;;;1.42;;
42518;SDS011;28147;47.520;18.920;2024-02-21T07:40:12;5.35;;;1.80;;
42518;SDS011;28147;47.520;18.920;2024-02-21T07:42:39;4.57;;;1.55;;
42518;SDS011;28147;47.520;18.920;2024-02-21T07:45:04;4.68;;;1.23;;
42518;SDS011;28147;47.520;18.920;2024-02-21T07:47:31;4.10;;;1.50;;
42518;SDS011;28147;47.520;18.920;2024-02-21T07:49:57;5.30;;;1.85;;
42518;SDS011;28147;47.520;18.920;2024-02-21T07:52:22;5.30;;;1.50;;
42518;SDS011;28147;47.520;18.920;2024-02-21T07:54:47;3.70;;;1.65;;
42518;SDS011;28147;47.520;18.920;2024-02-21T07:57:12;4.22;;;1.75;;
42518;SDS011;28147;47.520;18.920;2024-02-21T08:00:28;5.85;;;1.27;;
42518;SDS011;28147;47.520;18.920;2024-02-21T08:02:53;6.13;;;1.75;;
42518;SDS011;28147;47.520;18.920;2024-02-21T08:05:19;6.68;;;2.35;;
42518;SDS011;28147;47.520;18.920;2024-02-21T08:07:48;2.47;;;1.25;;
42518;SDS011;28147;47.520;18.920;2024-02-21T08:10:14;7.35;;;1.85;;
42518;SDS011;28147;47.520;18.920;2024-02-21T08:12:40;3.28;;;1.58;;
42518;SDS011;28147;47.520;18.920;2024-02-21T08:15:05;4.47;;;1.55;;
42518;SDS011;28147;47.520;18.920;2024-02-21T08:17:35;3.97;;;1.67;;
42518;SDS011;28147;47.520;18.920;2024-02-21T08:20:01;6.10;;;1.63;;
42518;SDS011;28147;47.520;18.920;2024-02-21T08:22:27;8.60;;;1.95;;
42518;SDS011;28147;47.520;18.920;2024-02-21T08:24:53;5.43;;;1.98;;
42518;SDS011;28147;47.520;18.920;2024-02-21T08:27:18;5.72;;;1.75;;
42518;SDS011;28147;47.520;18.920;2024-02-21T08:29:44;5.55;;;1.88;;
42518;SDS011;28147;47.520;18.920;2024-02-21T08:32:09;9.20;;;3.58;;
42518;SDS011;28147;47.520;18.920;2024-02-21T08:34:34;4.53;;;1.77;;
42518;SDS011;28147;47.520;18.920;2024-02-21T08:37:00;4.07;;;1.60;;
42518;SDS011;28147;47.520;18.920;2024-02-21T08:39:25;6.72;;;2.42;;
42518;SDS011;28147;47.520;18.920;2024-02-21T08:41:51;7.03;;;1.77;;
42518;SDS011;28147;47.520;18.920;2024-02-21T08:44:16;4.85;;;1.80;;
42518;SDS011;28147;47.520;18.920;2024-02-21T08:46:41;5.88;;;1.95;;
42518;SDS011;28147;47.520;18.920;2024-02-21T08:49:07;8.32;;;2.40;;
42518;SDS011;28147;47.520;18.920;2024-02-21T08:51:35;7.55;;;2.47;;
42518;SDS011;28147;47.520;18.920;2024-02-21T08:54:00;6.13;;;2.30;;
42518;SDS011;28147;47.520;18.920;2024-02-21T08:56:26;5.15;;;2.00;;
42518;SDS011;28147;47.520;18.920;2024-02-21T08:58:51;3.53;;;1.63;;
42518;SDS011;28147;47.520;18.920;2024-02-21T09:01:16;7.18;;;1.55;;
42518;SDS011;28147;47.520;18.920;2024-02-21T09:03:42;5.38;;;2.20;;
42518;SDS011;28147;47.520;18.920;2024-02-21T09:06:09;6.43;;;2.10;;
42518;SDS011;28147;47.520;18.920;2024-02-21T09:08:35;6.47;;;2.00;;
42518;SDS011;28147;47.520;18.920;2024-02-21T09:11:00;4.30;;;1.65;;
42518;SDS011;28147;47.520;18.920;2024-02-21T09:13:26;2.58;;;1.45;;
42518;SDS011;28147;47.520;18.920;2024-02-21T09:15:52;3.13;;;1.63;;
42518;SDS011;28147;47.520;18.920;2024-02-21T09:18:17;6.57;;;2.08;;
42518;SDS011;28147;47.520;18.920;2024-02-21T09:20:42;4.70;;;2.50;;
42518;SDS011;28147;47.520;18.920;2024-02-21T09:23:08;9.82;;;1.92;;
42518;SDS011;28147;47.520;18.920;2024-02-21T09:25:34;9.65;;;2.10;;
42518;SDS011;28147;47.520;18.920;2024-02-21T09:28:00;6.63;;;2.53;;
42518;SDS011;28147;47.520;18.920;2024-02-21T09:30:26;4.20;;;1.80;;
42518;SDS011;28147;47.520;18.920;2024-02-21T09:32:52;5.00;;;1.92;;
42518;SDS011;28147;47.520;18.920;2024-02-21T09:35:17;7.63;;;2.63;;
42518;SDS011;28147;47.520;18.920;2024-02-21T09:37:43;4.95;;;1.80;;
42518;SDS011;28147;47.520;18.920;2024-02-21T09:40:11;4.90;;;1.92;;
42518;SDS011;28147;47.520;18.920;2024-02-21T09:42:41;10.68;;;3.13;;
42518;SDS011;28147;47.520;18.920;2024-02-21T09:47:48;7.13;;;2.35;;
42518;SDS011;28147;47.520;18.920;2024-02-21T09:50:20;6.78;;;3.10;;
42518;SDS011;28147;47.520;18.920;2024-02-21T09:52:46;6.95;;;2.30;;
42518;SDS011;28147;47.520;18.920;2024-02-21T09:55:13;6.97;;;2.50;;
42518;SDS011;28147;47.520;18.920;2024-02-21T09:57:40;9.40;;;2.53;;
42518;SDS011;28147;47.520;18.920;2024-02-21T10:00:06;8.20;;;2.30;;
42518;SDS011;28147;47.520;18.920;2024-02-21T10:02:35;7.78;;;1.77;;
42518;SDS011;28147;47.520;18.920;2024-02-21T10:05:01;6.88;;;1.67;;
42518;SDS011;28147;47.520;18.920;2024-02-21T10:07:29;5.60;;;1.80;;
42518;SDS011;28147;47.520;18.920;2024-02-21T10:10:04;4.20;;;2.08;;
42518;SDS011;28147;47.520;18.920;2024-02-21T10:12:30;4.45;;;2.28;;
42518;SDS011;28147;47.520;18.920;2024-02-21T10:15:05;6.30;;;2.10;;
42518;SDS011;28147;47.520;18.920;2024-02-21T10:17:34;6.78;;;2.13;;
42518;SDS011;28147;47.520;18.920;2024-02-21T10:20:09;6.60;;;2.40;;
42518;SDS011;28147;47.520;18.920;2024-02-21T10:22:35;8.05;;;2.35;;
42518;SDS011;28147;47.520;18.920;2024-02-21T10:27:33;6.75;;;2.25;;
42518;SDS011;28147;47.520;18.920;2024-02-21T10:29:58;5.35;;;2.40;;
42518;SDS011;28147;47.520;18.920;2024-02-21T10:32:23;5.68;;;2.50;;
42518;SDS011;28147;47.520;18.920;2024-02-21T10:35:00;6.82;;;2.20;;
42518;SDS011;28147;47.520;18.920;2024-02-21T10:37:29;8.48;;;2.40;;
42518;SDS011;28147;47.520;18.920;2024-02-21T10:39:54;6.28;;;2.15;;
42518;SDS011;28147;47.520;18.920;2024-02-21T10:42:21;5.57;;;2.20;;
42518;SDS011;28147;47.520;18.920;2024-02-21T10:44:46;8.27;;;2.50;;
42518;SDS011;28147;47.520;18.920;2024-02-21T10:47:19;10.45;;;3.17;;
42518;SDS011;28147;47.520;18.920;2024-02-21T10:49:49;5.97;;;2.72;;
42518;SDS011;28147;47.520;18.920;2024-02-21T10:52:27;5.93;;;2.00;;
42518;SDS011;28147;47.520;18.920;2024-02-21T10:55:15;6.90;;;1.98;;
42518;SDS011;28147;47.520;18.920;2024-02-21T10:57:46;5.97;;;2.20;;
42518;SDS011;28147;47.520;18.920;2024-02-21T11:00:12;10.93;;;3.47;;
42518;SDS011;28147;47.520;18.920;2024-02-21T11:02:42;7.38;;;2.05;;
42518;SDS011;28147;47.520;18.920;2024-02-21T11:05:08;10.20;;;2.95;;
42518;SDS011;28147;47.520;18.920;2024-02-21T11:07:35;7.60;;;2.50;;
42518;SDS011;28147;47.520;18.920;2024-02-21T11:10:02;9.48;;;2.30;;
42518;SDS011;28147;47.520;18.920;2024-02-21T11:12:28;7.20;;;2.53;;
42518;SDS011;28147;47.520;18.920;2024-02-21T11:15:04;5.93;;;1.83;;
42518;SDS011;28147;47.520;18.920;2024-02-21T11:17:31;5.75;;;1.92;;
42518;SDS011;28147;47.520;18.920;2024-02-21T11:19:56;7.30;;;2.13;;
42518;SDS011;28147;47.520;18.920;2024-02-21T11:22:21;6.85;;;2.40;;
42518;SDS011;28147;47.520;18.920;2024-02-21T11:24:49;5.15;;;1.70;;
42518;SDS011;28147;47.520;18.920;2024-02-21T11:27:15;12.30;;;2.90;;
42518;SDS011;28147;47.520;18.920;2024-02-21T11:29:45;6.45;;;2.70;;
42518;SDS011;28147;47.520;18.920;2024-02-21T11:32:15;7.13;;;2.65;;
42518;SDS011;28147;47.520;18.920;2024-02-21T11:37:26;9.02;;;3.15;;
42518;SDS011;28147;47.520;18.920;2024-02-21T11:39:53;10.05;;;2.92;;
42518;SDS011;28147;47.520;18.920;2024-02-21T11:42:19;6.88;;;2.42;;
42518;SDS011;28147;47.520;18.920;2024-02-21T11:44:45;8.65;;;2.95;;
42518;SDS011;28147;47.520;18.920;2024-02-21T11:47:11;8.60;;;2.90;;
42518;SDS011;28147;47.520;18.920;2024-02-21T11:49:37;8.32;;;2.25;;
42518;SDS011;28147;47.520;18.920;2024-02-21T11:52:04;5.78;;;2.50;;
42518;SDS011;28147;47.520;18.920;2024-02-21T11:54:30;6.40;;;2.22;;
42518;SDS011;28147;47.520;18.920;2024-02-21T11:56:56;7.82;;;2.22;;
42518;SDS011;28147;47.520;18.920;2024-02-21T11:59:21;6.68;;;2.60;;
42518;SDS011;28147;47.520;18.920;2024-02-21T12:01:48;5.20;;;2.10;;
42518;SDS011;28147;47.520;18.920;2024-02-21T12:04:14;4.85;;;1.90;;
42518;SDS011;28147;47.520;18.920;2024-02-21T12:06:42;7.43;;;2.08;;
42518;SDS011;28147;47.520;18.920;2024-02-21T12:09:09;4.88;;;1.90;;
42518;SDS011;28147;47.520;18.920;2024-02-21T12:11:34;6.80;;;2.38;;
42518;SDS011;28147;47.520;18.920;2024-02-21T12:14:00;6.63;;;1.70;;
42518;SDS011;28147;47.520;18.920;2024-02-21T12:16:28;7.32;;;1.73;;
42518;SDS011;28147;47.520;18.920;2024-02-21T12:18:55;4.78;;;1.90;;
42518;SDS011;28147;47.520;18.920;2024-02-21T12:21:29;7.65;;;2.10;;
42518;SDS011;28147;47.520;18.920;2024-02-21T12:23:55;7.35;;;1.83;;
42518;SDS011;28147;47.520;18.920;2024-02-21T12:26:21;5.22;;;1.58;;
42518;SDS011;28147;47.520;18.920;2024-02-21T12:28:47;6.47;;;2.20;;
42518;SDS011;28147;47.520;18.920;2024-02-21T12:31:12;8.80;;;1.95;;
42518;SDS011;28147;47.520;18.920;2024-02-21T12:33:38;4.57;;;2.15;;
42518;SDS011;28147;47.520;18.920;2024-02-21T12:36:04;4.88;;;1.65;;
42518;SDS011;28147;47.520;18.920;2024-02-21T12:38:30;6.22;;;1.90;;
42518;SDS011;28147;47.520;18.920;2024-02-21T12:40:55;6.10;;;1.80;;
42518;SDS011;28147;47.520;18.920;2024-02-21T12:43:22;6.55;;;1.98;;
42518;SDS011;28147;47.520;18.920;2024-02-21T12:45:48;5.45;;;1.98;;
42518;SDS011;28147;47.520;18.920;2024-02-21T12:48:13;11.52;;;2.13;;
42518;SDS011;28147;47.520;18.920;2024-02-21T12:50:39;7.43;;;2.22;;
42518;SDS011;28147;47.520;18.920;2024-02-21T12:53:06;6.07;;;2.90;;
42518;SDS011;28147;47.520;18.920;2024-02-21T12:55:32;4.38;;;1.90;;
42518;SDS011;28147;47.520;18.920;2024-02-21T12:58:02;5.13;;;1.77;;
42518;SDS011;28147;47.520;18.920;2024-02-21T13:00:28;7.43;;;2.00;;
42518;SDS011;28147;47.520;18.920;2024-02-21T13:02:56;6.35;;;2.05;;
42518;SDS011;28147;47.520;18.920;2024-02-21T13:05:21;7.38;;;1.88;;
42518;SDS011;28147;47.520;18.920;2024-02-21T13:07:48;4.45;;;2.00;;
42518;SDS011;28147;47.520;18.920;2024-02-21T13:10:13;6.25;;;1.70;;
42518;SDS011;28147;47.520;18.920;2024-02-21T13:12:39;8.15;;;1.77;;
42518;SDS011;28147;47.520;18.920;2024-02-21T13:15:04;3.60;;;1.58;;
42518;SDS011;28147;47.520;18.920;2024-02-21T13:17:30;5.85;;;1.85;;
42518;SDS011;28147;47.520;18.920;2024-02-21T13:19:56;3.70;;;1.83;;
42518;SDS011;28147;47.520;18.920;2024-02-21T13:22:22;8.55;;;1.73;;
42518;SDS011;28147;47.520;18.920;2024-02-21T13:24:50;6.75;;;1.90;;
42518;SDS011;28147;47.520;18.920;2024-02-21T13:27:16;9.27;;;1.73;;
42518;SDS011;28147;47.520;18.920;2024-02-21T13:29:41;8.82;;;2.10;;
42518;SDS011;28147;47.520;18.920;2024-02-21T13:32:06;3.72;;;1.70;;
42518;SDS011;28147;47.520;18.920;2024-02-21T13:34:32;7.95;;;1.80;;
42518;SDS011;28147;47.520;18.920;2024-02-21T13:36:57;7.45;;;2.20;;
42518;SDS011;28147;47.520;18.920;2024-02-21T13:39:24;4.22;;;1.88;;
42518;SDS011;28147;47.520;18.920;2024-02-21T13:41:49;6.88;;;2.33;;
42518;SDS011;28147;47.520;18.920;2024-02-21T13:44:15;9.25;;;1.80;;
42518;SDS011;28147;47.520;18.920;2024-02-21T13:46:40;5.15;;;1.65;;
42518;SDS011;28147;47.520;18.920;2024-02-21T13:49:05;3.85;;;1.20;;
42518;SDS011;28147;47.520;18.920;2024-02-21T13:51:32;3.28;;;1.67;;
42518;SDS011;28147;47.520;18.920;2024-02-21T13:53:58;6.07;;;1.83;;
42518;SDS011;28147;47.520;18.920;2024-02-21T13:56:24;4.75;;;1.60;;
42518;SDS011;28147;47.520;18.920;2024-02-21T13:58:49;6.90;;;1.67;;
42518;SDS011;28147;47.520;18.920;2024-02-21T14:01:15;8.13;;;1.92;;
42518;SDS011;28147;47.520;18.920;2024-02-21T14:03:41;6.10;;;1.70;;
42518;SDS011;28147;47.520;18.920;2024-02-21T14:06:06;3.92;;;1.48;;
42518;SDS011;28147;47.520;18.920;2024-02-21T14:08:31;6.60;;;1.63;;
42518;SDS011;28147;47.520;18.920;2024-02-21T14:10:59;6.20;;;1.40;;
42518;SDS011;28147;47.520;18.920;2024-02-21T14:13:25;10.13;;;2.22;;
42518;SDS011;28147;47.520;18.920;2024-02-21T14:15:50;4.70;;;1.55;;
42518;SDS011;28147;47.520;18.920;2024-02-21T14:18:16;3.58;;;1.40;;
42518;SDS011;28147;47.520;18.920;2024-02-21T14:20:41;4.15;;;1.67;;
42518;SDS011;28147;47.520;18.920;2024-02-21T14:23:07;5.15;;;1.60;;
42518;SDS011;28147;47.520;18.920;2024-02-21T14:25:33;8.10;;;1.65;;
42518;SDS011;28147;47.520;18.920;2024-02-21T14:27:58;6.25;;;1.40;;
42518;SDS011;28147;47.520;18.920;2024-02-21T14:30:25;5.10;;;1.45;;
42518;SDS011;28147;47.520;18.920;2024-02-21T14:32:51;4.38;;;1.40;;
42518;SDS011;28147;47.520;18.920;2024-02-21T14:35:16;4.57;;;1.52;;
42518;SDS011;28147;47.520;18.920;2024-02-21T14:37:42;5.10;;;1.20;;
42518;SDS011;28147;47.520;18.920;2024-02-21T14:40:07;6.97;;;1.65;;
42518;SDS011;28147;47.520;18.920;2024-02-21T14:42:33;4.32;;;1.30;;
42518;SDS011;28147;47.520;18.920;2024-02-21T14:44:59;5.07;;;1.55;;
42518;SDS011;28147;47.520;18.920;2024-02-21T14:47:29;3.35;;;0.93;;
42518;SDS011;28147;47.520;18.920;2024-02-21T14:49:55;6.35;;;1.38;;
42518;SDS011;28147;47.520;18.920;2024-02-21T14:52:21;7.95;;;1.65;;
42518;SDS011;28147;47.520;18.920;2024-02-21T14:54:46;5.10;;;1.60;;
42518;SDS011;28147;47.520;18.920;2024-02-21T14:57:14;6.15;;;1.52;;
42518;SDS011;28147;47.520;18.920;2024-02-21T14:59:40;6.13;;;1.35;;
42518;SDS011;28147;47.520;18.920;2024-02-21T15:02:05;3.13;;;1.33;;
42518;SDS011;28147;47.520;18.920;2024-02-21T15:04:32;4.80;;;1.88;;
42518;SDS011;28147;47.520;18.920;2024-02-21T15:06:58;4.10;;;1.52;;
42518;SDS011;28147;47.520;18.920;2024-02-21T15:09:23;2.45;;;1.00;;
42518;SDS011;28147;47.520;18.920;2024-02-21T15:11:48;4.50;;;1.65;;
42518;SDS011;28147;47.520;18.920;2024-02-21T15:14:14;5.78;;;1.63;;
42518;SDS011;28147;47.520;18.920;2024-02-21T15:16:39;5.05;;;1.30;;
42518;SDS011;28147;47.520;18.920;2024-02-21T15:19:04;5.22;;;1.70;;
42518;SDS011;28147;47.520;18.920;2024-02-21T15:21:30;4.90;;;1.50;;
42518;SDS011;28147;47.520;18.920;2024-02-21T15:23:55;7.10;;;1.77;;
42518;SDS011;28147;47.520;18.920;2024-02-21T15:26:21;4.07;;;1.52;;
42518;SDS011;28147;47.520;18.920;2024-02-21T15:28:47;4.88;;;1.70;;
42518;SDS011;28147;47.520;18.920;2024-02-21T15:31:19;6.22;;;1.55;;
42518;SDS011;28147;47.520;18.920;2024-02-21T15:33:51;4.75;;;1.30;;
42518;SDS011;28147;47.520;18.920;2024-02-21T15:36:17;3.78;;;1.40;;
42518;SDS011;28147;47.520;18.920;2024-02-21T15:38:43;4.60;;;1.40;;
42518;SDS011;28147;47.520;18.920;2024-02-21T15:41:11;7.22;;;1.20;;
42518;SDS011;28147;47.520;18.920;2024-02-21T15:43:36;3.47;;;0.98;;
42518;SDS011;28147;47.520;18.920;2024-02-21T15:46:03;3.45;;;1.20;;
42518;SDS011;28147;47.520;18.920;2024-02-21T15:48:28;6.22;;;1.88;;
42518;SDS011;28147;47.520;18.920;2024-02-21T15:50:54;5.70;;;1.40;;
42518;SDS011;28147;47.520;18.920;2024-02-21T15:53:19;3.72;;;1.35;;
42518;SDS011;28147;47.520;18.920;2024-02-21T15:55:45;3.78;;;1.40;;
42518;SDS011;28147;47.520;18.920;2024-02-21T16:01:45;5.07;;;2.00;;
42518;SDS011;28147;47.520;18.920;2024-02-21T16:04:10;5.60;;;1.50;;
42518;SDS011;28147;47.520;18.920;2024-02-21T16:06:36;6.85;;;1.50;;
42518;SDS011;28147;47.520;18.920;2024-02-21T16:09:01;5.88;;;1.30;;
42518;SDS011;28147;47.520;18.920;2024-02-21T16:11:29;6.72;;;1.73;;
42518;SDS011;28147;47.520;18.920;2024-02-21T16:15:08;5.57;;;1.52;;
42518;SDS011;28147;47.520;18.920;2024-02-21T16:17:35;5.88;;;1.90;;
42518;SDS011;28147;47.520;18.920;2024-02-21T16:20:01;4.88;;;1.48;;
42518;SDS011;28147;47.520;18.920;2024-02-21T16:22:28;6.45;;;1.25;;
42518;SDS011;28147;47.520;18.920;2024-02-21T16:24:54;4.03;;;1.40;;
42518;SDS011;28147;47.520;18.920;2024-02-21T16:27:19;3.63;;;1.23;;
42518;SDS011;28147;47.520;18.920;2024-02-21T16:29:45;3.90;;;1.10;;
42518;SDS011;28147;47.520;18.920;2024-02-21T16:32:10;2.53;;;1.00;;
42518;SDS011;28147;47.520;18.920;2024-02-21T16:34:35;3.95;;;1.10;;
42518;SDS011;28147;47.520;18.920;2024-02-21T16:37:01;5.07;;;1.75;;
42518;SDS011;28147;47.520;18.920;2024-02-21T16:39:27;3.05;;;1.10;;
42518;SDS011;28147;47.520;18.920;2024-02-21T16:41:52;6.53;;;1.23;;
42518;SDS011;28147;47.520;18.920;2024-02-21T16:44:20;3.78;;;1.30;;
42518;SDS011;28147;47.520;18.920;2024-02-21T16:46:46;4.50;;;1.50;;
42518;SDS011;28147;47.520;18.920;2024-02-21T16:49:11;4.32;;;1.45;;
42518;SDS011;28147;47.520;18.920;2024-02-21T16:51:37;6.35;;;2.10;;
42518;SDS011;28147;47.520;18.920;2024-02-21T16:54:03;6.22;;;2.80;;
42518;SDS011;28147;47.520;18.920;2024-02-21T16:56:33;6.35;;;2.15;;
42518;SDS011;28147;47.520;18.920;2024-02-21T16:58:58;6.30;;;2.40;;
42518;SDS011;28147;47.520;18.920;2024-02-21T17:01:23;4.60;;;1.30;;
42518;SDS011;28147;47.520;18.920;2024-02-21T17:03:49;4.47;;;1.60;;
42518;SDS011;28147;47.520;18.920;2024-02-21T17:06:14;3.72;;;1.20;;
42518;SDS011;28147;47.520;18.920;2024-02-21T17:08:40;6.65;;;1.85;;
42518;SDS011;28147;47.520;18.920;2024-02-21T17:11:06;7.65;;;1.75;;
42518;SDS011;28147;47.520;18.920;2024-02-21T17:13:32;6.60;;;1.50;;
42518;SDS011;28147;47.520;18.920;2024-02-21T17:15:58;3.90;;;1.08;;
42518;SDS011;28147;47.520;18.920;2024-02-21T17:18:24;7.43;;;1.50;;
42518;SDS011;28147;47.520;18.920;2024-02-21T17:20:49;5.18;;;1.45;;
42518;SDS011;28147;47.520;18.920;2024-02-21T17:23:14;3.88;;;1.67;;
42518;SDS011;28147;47.520;18.920;2024-02-21T17:25:40;7.43;;;2.28;;
42518;SDS011;28147;47.520;18.920;2024-02-21T17:28:06;4.22;;;1.50;;
42518;SDS011;28147;47.520;18.920;2024-02-21T17:30:32;5.32;;;1.65;;
42518;SDS011;28147;47.520;18.920;2024-02-21T17:33:01;3.67;;;1.67;;
42518;SDS011;28147;47.520;18.920;2024-02-21T17:35:28;5.10;;;1.80;;
42518;SDS011;28147;47.520;18.920;2024-02-21T17:37:54;8.80;;;2.50;;
42518;SDS011;28147;47.520;18.920;2024-02-21T17:40:19;8.73;;;3.20;;
42518;SDS011;28147;47.520;18.920;2024-02-21T17:42:44;14.25;;;4.50;;
42518;SDS011;28147;47.520;18.920;2024-02-21T17:45:10;13.38;;;4.93;;
42518;SDS011;28147;47.520;18.920;2024-02-21T17:47:35;20.42;;;6.60;;
42518;SDS011;28147;47.520;18.920;2024-02-21T17:50:00;18.13;;;6.80;;
42518;SDS011;28147;47.520;18.920;2024-02-21T17:52:26;18.08;;;6.15;;
42518;SDS011;28147;47.520;18.920;2024-02-21T17:54:52;9.63;;;4.13;;
42518;SDS011;28147;47.520;18.920;2024-02-21T17:57:17;9.90;;;3.47;;
42518;SDS011;28147;47.520;18.920;2024-02-21T17:59:43;9.43;;;4.15;;
42518;SDS011;28147;47.520;18.920;2024-02-21T18:03:11;13.07;;;4.55;;
42518;SDS011;28147;47.520;18.920;2024-02-21T18:05:40;13.10;;;5.35;;
42518;SDS011;28147;47.520;18.920;2024-02-21T18:08:08;10.43;;;4.47;;
42518;SDS011;28147;47.520;18.920;2024-02-21T18:10:34;9.23;;;4.05;;
42518;SDS011;28147;47.520;18.920;2024-02-21T18:14:20;11.40;;;5.47;;
42518;SDS011;28147;47.520;18.920;2024-02-21T18:16:46;12.73;;;5.70;;
42518;SDS011;28147;47.520;18.920;2024-02-21T18:19:11;14.07;;;5.60;;
42518;SDS011;28147;47.520;18.920;2024-02-21T18:21:36;17.35;;;6.57;;
42518;SDS011;28147;47.520;18.920;2024-02-21T18:24:02;12.65;;;5.82;;
42518;SDS011;28147;47.520;18.920;2024-02-21T18:26:29;15.77;;;5.50;;
42518;SDS011;28147;47.520;18.920;2024-02-21T18:28:55;11.23;;;5.28;;
42518;SDS011;28147;47.520;18.920;2024-02-21T18:31:20;11.23;;;5.03;;
42518;SDS011;28147;47.520;18.920;2024-02-21T18:33:45;12.82;;;5.93;;
42518;SDS011;28147;47.520;18.920;2024-02-21T18:36:11;12.18;;;6.53;;
42518;SDS011;28147;47.520;18.920;2024-02-21T18:38:37;14.32;;;7.68;;
42518;SDS011;28147;47.520;18.920;2024-02-21T18:41:02;17.77;;;7.47;;